sensor_id;sensor_type;location;lat;lon;timestamp;P1;durP1;ratioP1;P2;durP2;ratioP2
6842;SDS011;3460;52.028;8.916;2024-03-08T00:01:45;20.70;;;13.03;;
6842;SDS011;3460;52.028;8.916;2024-03-08T00:04:12;20.60;;;13.10;;
6842;SDS011;3460;52.028;8.916;2024-03-08T00:06:40;23.90;;;13.87;;
6842;SDS011;3460;52.028;8.916;2024-03-08T00:09:09;23.03;;;14.70;;
6842;SDS011;3460;52.028;8.916;2024-03-08T00:11:35;22.20;;;14.10;;
6842;SDS011;3460;52.028;8.916;2024-03-08T00:14:04;21.53;;;13.30;;
6842;SDS011;3460;52.028;8.916;2024-03-08T00:16:31;18.70;;;13.50;;
6842;SDS011;3460;52.028;8.916;2024-03-08T00:18:58;23.20;;;13.97;;
6842;SDS011;3460;52.028;8.916;2024-03-08T00:21:25;23.27;;;14.23;;
6842;SDS011;3460;52.028;8.916;2024-03-08T00:23:53;20.27;;;13.07;;
6842;SDS011;3460;52.028;8.916;2024-03-08T00:26:20;19.83;;;13.43;;
6842;SDS011;3460;52.028;8.916;2024-03-08T00:28:47;22.87;;;14.10;;
6842;SDS011;3460;52.028;8.916;2024-03-08T00:31:15;19.13;;;12.97;;
6842;SDS011;3460;52.028;8.916;2024-03-08T00:33:43;21.33;;;14.53;;
6842;SDS011;3460;52.028;8.916;2024-03-08T00:36:09;21.70;;;14.23;;
6842;SDS011;3460;52.028;8.916;2024-03-08T00:38:36;20.43;;;13.40;;
6842;SDS011;3460;52.028;8.916;2024-03-08T00:41:03;25.27;;;15.53;;
6842;SDS011;3460;52.028;8.916;2024-03-08T00:43:30;20.53;;;13.70;;
6842;SDS011;3460;52.028;8.916;2024-03-08T00:45:56;23.23;;;14.37;;
6842;SDS011;3460;52.028;8.916;2024-03-08T00:48:25;21.20;;;13.87;;
6842;SDS011;3460;52.028;8.916;2024-03-08T00:50:52;21.77;;;13.13;;
6842;SDS011;3460;52.028;8.916;2024-03-08T00:53:18;21.60;;;13.93;;
6842;SDS011;3460;52.028;8.916;2024-03-08T00:55:45;18.90;;;12.80;;
6842;SDS011;3460;52.028;8.916;2024-03-08T00:58:12;23.23;;;14.03;;
6842;SDS011;3460;52.028;8.916;2024-03-08T01:00:39;20.87;;;13.63;;
6842;SDS011;3460;52.028;8.916;2024-03-08T01:03:06;23.33;;;14.57;;
6842;SDS011;3460;52.028;8.916;2024-03-08T01:05:34;22.23;;;13.90;;
6842;SDS011;3460;52.028;8.916;2024-03-08T01:08:01;19.40;;;13.40;;
6842;SDS011;3460;52.028;8.916;2024-03-08T01:10:28;22.17;;;13.10;;
6842;SDS011;3460;52.028;8.916;2024-03-08T01:12:55;22.87;;;13.93;;
6842;SDS011;3460;52.028;8.916;2024-03-08T01:15:24;20.53;;;13.40;;
6842;SDS011;3460;52.028;8.916;2024-03-08T01:17:51;22.00;;;13.20;;
6842;SDS011;3460;52.028;8.916;2024-03-08T01:20:19;23.83;;;13.13;;
6842;SDS011;3460;52.028;8.916;2024-03-08T01:22:47;19.30;;;12.30;;
6842;SDS011;3460;52.028;8.916;2024-03-08T01:25:14;22.43;;;13.00;;
6842;SDS011;3460;52.028;8.916;2024-03-08T01:27:41;20.73;;;13.03;;
6842;SDS011;3460;52.028;8.916;2024-03-08T01:30:08;21.53;;;13.77;;
6842;SDS011;3460;52.028;8.916;2024-03-08T01:32:35;18.80;;;12.30;;
6842;SDS011;3460;52.028;8.916;2024-03-08T01:35:02;22.90;;;14.53;;
6842;SDS011;3460;52.028;8.916;2024-03-08T01:37:29;23.90;;;13.87;;
6842;SDS011;3460;52.028;8.916;2024-03-08T01:39:58;18.80;;;13.17;;
6842;SDS011;3460;52.028;8.916;2024-03-08T01:42:24;21.17;;;13.50;;
6842;SDS011;3460;52.028;8.916;2024-03-08T01:44:51;19.47;;;13.97;;
6842;SDS011;3460;52.028;8.916;2024-03-08T01:47:18;18.80;;;12.60;;
6842;SDS011;3460;52.028;8.916;2024-03-08T01:49:48;22.17;;;13.33;;
6842;SDS011;3460;52.028;8.916;2024-03-08T01:52:15;20.73;;;13.80;;
6842;SDS011;3460;52.028;8.916;2024-03-08T01:54:44;21.83;;;13.23;;
6842;SDS011;3460;52.028;8.916;2024-03-08T01:57:12;19.13;;;12.23;;
6842;SDS011;3460;52.028;8.916;2024-03-08T01:59:40;20.53;;;13.37;;
6842;SDS011;3460;52.028;8.916;2024-03-08T02:02:08;20.83;;;13.33;;
6842;SDS011;3460;52.028;8.916;2024-03-08T02:04:38;23.63;;;13.30;;
6842;SDS011;3460;52.028;8.916;2024-03-08T02:07:05;23.20;;;13.83;;
6842;SDS011;3460;52.028;8.916;2024-03-08T02:09:32;23.07;;;14.17;;
6842;SDS011;3460;52.028;8.916;2024-03-08T02:11:59;23.20;;;14.13;;
6842;SDS011;3460;52.028;8.916;2024-03-08T02:14:27;24.60;;;13.43;;
6842;SDS011;3460;52.028;8.916;2024-03-08T02:16:59;23.23;;;14.47;;
6842;SDS011;3460;52.028;8.916;2024-03-08T02:19:26;23.47;;;15.47;;
6842;SDS011;3460;52.028;8.916;2024-03-08T02:21:54;26.10;;;14.60;;
6842;SDS011;3460;52.028;8.916;2024-03-08T02:24:22;22.50;;;14.33;;
6842;SDS011;3460;52.028;8.916;2024-03-08T02:26:50;20.53;;;13.73;;
6842;SDS011;3460;52.028;8.916;2024-03-08T02:29:18;25.43;;;15.17;;
6842;SDS011;3460;52.028;8.916;2024-03-08T02:31:46;26.57;;;15.43;;
6842;SDS011;3460;52.028;8.916;2024-03-08T02:34:13;23.97;;;14.77;;
6842;SDS011;3460;52.028;8.916;2024-03-08T02:36:40;25.17;;;14.67;;
6842;SDS011;3460;52.028;8.916;2024-03-08T02:39:08;25.50;;;15.27;;
6842;SDS011;3460;52.028;8.916;2024-03-08T02:41:35;25.03;;;14.47;;
6842;SDS011;3460;52.028;8.916;2024-03-08T02:44:02;25.53;;;15.17;;
6842;SDS011;3460;52.028;8.916;2024-03-08T02:46:30;21.17;;;14.13;;
6842;SDS011;3460;52.028;8.916;2024-03-08T02:48:56;24.30;;;15.10;;
6842;SDS011;3460;52.028;8.916;2024-03-08T02:51:23;23.20;;;14.20;;
6842;SDS011;3460;52.028;8.916;2024-03-08T02:53:51;21.67;;;14.57;;
6842;SDS011;3460;52.028;8.916;2024-03-08T02:56:19;24.43;;;15.13;;
6842;SDS011;3460;52.028;8.916;2024-03-08T02:58:47;20.73;;;13.77;;
6842;SDS011;3460;52.028;8.916;2024-03-08T03:01:13;23.10;;;14.93;;
6842;SDS011;3460;52.028;8.916;2024-03-08T03:03:39;22.73;;;14.97;;
6842;SDS011;3460;52.028;8.916;2024-03-08T03:06:07;24.67;;;14.97;;
6842;SDS011;3460;52.028;8.916;2024-03-08T03:08:34;25.03;;;14.70;;
6842;SDS011;3460;52.028;8.916;2024-03-08T03:11:02;24.67;;;15.43;;
6842;SDS011;3460;52.028;8.916;2024-03-08T03:13:30;26.30;;;15.60;;
6842;SDS011;3460;52.028;8.916;2024-03-08T03:15:58;26.37;;;14.60;;
6842;SDS011;3460;52.028;8.916;2024-03-08T03:18:25;24.90;;;15.27;;
6842;SDS011;3460;52.028;8.916;2024-03-08T03:20:52;23.80;;;14.50;;
6842;SDS011;3460;52.028;8.916;2024-03-08T03:23:19;21.00;;;14.23;;
6842;SDS011;3460;52.028;8.916;2024-03-08T03:25:46;23.57;;;14.03;;
6842;SDS011;3460;52.028;8.916;2024-03-08T03:28:13;27.50;;;15.00;;
6842;SDS011;3460;52.028;8.916;2024-03-08T03:30:44;27.73;;;15.23;;
6842;SDS011;3460;52.028;8.916;2024-03-08T03:33:11;29.63;;;15.30;;
6842;SDS011;3460;52.028;8.916;2024-03-08T03:35:40;24.50;;;14.83;;
6842;SDS011;3460;52.028;8.916;2024-03-08T03:38:08;23.37;;;14.27;;
6842;SDS011;3460;52.028;8.916;2024-03-08T03:40:35;26.37;;;15.53;;
6842;SDS011;3460;52.028;8.916;2024-03-08T03:43:02;23.97;;;15.20;;
6842;SDS011;3460;52.028;8.916;2024-03-08T03:45:29;28.83;;;16.10;;
6842;SDS011;3460;52.028;8.916;2024-03-08T03:48:01;25.90;;;15.83;;
6842;SDS011;3460;52.028;8.916;2024-03-08T03:50:28;25.97;;;15.73;;
6842;SDS011;3460;52.028;8.916;2024-03-08T03:52:55;25.77;;;15.37;;
6842;SDS011;3460;52.028;8.916;2024-03-08T03:55:22;26.27;;;15.27;;
6842;SDS011;3460;52.028;8.916;2024-03-08T03:57:49;27.70;;;16.47;;
6842;SDS011;3460;52.028;8.916;2024-03-08T04:00:16;27.90;;;16.50;;
6842;SDS011;3460;52.028;8.916;2024-03-08T04:02:43;28.17;;;17.13;;
6842;SDS011;3460;52.028;8.916;2024-03-08T04:05:11;29.03;;;16.37;;
6842;SDS011;3460;52.028;8.916;2024-03-08T04:07:38;24.70;;;15.93;;
6842;SDS011;3460;52.028;8.916;2024-03-08T04:10:06;26.83;;;15.67;;
6842;SDS011;3460;52.028;8.916;2024-03-08T04:12:35;27.10;;;16.17;;
6842;SDS011;3460;52.028;8.916;2024-03-08T04:15:02;24.47;;;16.40;;
6842;SDS011;3460;52.028;8.916;2024-03-08T04:17:32;28.00;;;15.97;;
6842;SDS011;3460;52.028;8.916;2024-03-08T04:20:00;24.20;;;15.80;;
6842;SDS011;3460;52.028;8.916;2024-03-08T04:22:34;24.20;;;15.47;;
6842;SDS011;3460;52.028;8.916;2024-03-08T04:25:01;22.07;;;14.60;;
6842;SDS011;3460;52.028;8.916;2024-03-08T04:27:28;24.97;;;15.93;;
6842;SDS011;3460;52.028;8.916;2024-03-08T04:29:55;26.77;;;16.17;;
6842;SDS011;3460;52.028;8.916;2024-03-08T04:32:22;29.17;;;16.73;;
6842;SDS011;3460;52.028;8.916;2024-03-08T04:34:48;26.43;;;15.90;;
6842;SDS011;3460;52.028;8.916;2024-03-08T04:37:15;25.97;;;15.87;;
6842;SDS011;3460;52.028;8.916;2024-03-08T04:39:44;27.80;;;15.93;;
6842;SDS011;3460;52.028;8.916;2024-03-08T04:42:12;28.40;;;15.57;;
6842;SDS011;3460;52.028;8.916;2024-03-08T04:44:39;26.93;;;15.80;;
6842;SDS011;3460;52.028;8.916;2024-03-08T04:47:06;24.67;;;15.17;;
6842;SDS011;3460;52.028;8.916;2024-03-08T04:49:33;24.07;;;15.30;;
6842;SDS011;3460;52.028;8.916;2024-03-08T04:52:00;26.10;;;15.87;;
6842;SDS011;3460;52.028;8.916;2024-03-08T04:54:28;25.53;;;15.50;;
6842;SDS011;3460;52.028;8.916;2024-03-08T04:56:56;25.17;;;15.10;;
6842;SDS011;3460;52.028;8.916;2024-03-08T04:59:25;26.10;;;16.03;;
6842;SDS011;3460;52.028;8.916;2024-03-08T05:01:52;28.73;;;16.87;;
6842;SDS011;3460;52.028;8.916;2024-03-08T05:04:18;26.90;;;16.20;;
6842;SDS011;3460;52.028;8.916;2024-03-08T05:06:45;29.13;;;15.23;;
6842;SDS011;3460;52.028;8.916;2024-03-08T05:09:12;25.03;;;15.43;;
6842;SDS011;3460;52.028;8.916;2024-03-08T05:11:41;24.60;;;15.70;;
6842;SDS011;3460;52.028;8.916;2024-03-08T05:14:10;25.43;;;16.73;;
6842;SDS011;3460;52.028;8.916;2024-03-08T05:16:39;30.07;;;17.90;;
6842;SDS011;3460;52.028;8.916;2024-03-08T05:19:05;30.43;;;16.67;;
6842;SDS011;3460;52.028;8.916;2024-03-08T05:21:32;25.23;;;15.43;;
6842;SDS011;3460;52.028;8.916;2024-03-08T05:23:59;25.90;;;15.47;;
6842;SDS011;3460;52.028;8.916;2024-03-08T05:26:26;27.07;;;16.20;;
6842;SDS011;3460;52.028;8.916;2024-03-08T05:28:52;24.87;;;14.83;;
6842;SDS011;3460;52.028;8.916;2024-03-08T05:31:21;27.37;;;15.53;;
6842;SDS011;3460;52.028;8.916;2024-03-08T05:33:48;29.77;;;16.73;;
6842;SDS011;3460;52.028;8.916;2024-03-08T05:36:15;29.17;;;15.87;;
6842;SDS011;3460;52.028;8.916;2024-03-08T05:38:42;28.87;;;15.73;;
6842;SDS011;3460;52.028;8.916;2024-03-08T05:41:09;26.33;;;15.63;;
6842;SDS011;3460;52.028;8.916;2024-03-08T05:43:36;27.07;;;16.97;;
6842;SDS011;3460;52.028;8.916;2024-03-08T05:46:03;30.50;;;17.27;;
6842;SDS011;3460;52.028;8.916;2024-03-08T05:48:32;29.77;;;16.17;;
6842;SDS011;3460;52.028;8.916;2024-03-08T05:50:59;27.27;;;16.73;;
6842;SDS011;3460;52.028;8.916;2024-03-08T05:53:27;26.93;;;15.53;;
6842;SDS011;3460;52.028;8.916;2024-03-08T05:55:56;28.87;;;17.43;;
6842;SDS011;3460;52.028;8.916;2024-03-08T05:58:23;28.30;;;16.83;;
6842;SDS011;3460;52.028;8.916;2024-03-08T06:00:50;27.43;;;17.13;;
6842;SDS011;3460;52.028;8.916;2024-03-08T06:03:17;34.87;;;17.93;;
6842;SDS011;3460;52.028;8.916;2024-03-08T06:05:47;26.13;;;15.80;;
6842;SDS011;3460;52.028;8.916;2024-03-08T06:08:14;28.77;;;16.07;;
6842;SDS011;3460;52.028;8.916;2024-03-08T06:10:41;29.03;;;17.10;;
6842;SDS011;3460;52.028;8.916;2024-03-08T06:13:08;29.47;;;16.13;;
6842;SDS011;3460;52.028;8.916;2024-03-08T06:15:37;26.33;;;15.57;;
6842;SDS011;3460;52.028;8.916;2024-03-08T06:18:04;32.47;;;16.43;;
6842;SDS011;3460;52.028;8.916;2024-03-08T06:20:33;26.83;;;15.60;;
6842;SDS011;3460;52.028;8.916;2024-03-08T06:23:01;31.20;;;15.90;;
6842;SDS011;3460;52.028;8.916;2024-03-08T06:25:28;30.00;;;17.90;;
6842;SDS011;3460;52.028;8.916;2024-03-08T06:27:54;29.67;;;16.60;;
6842;SDS011;3460;52.028;8.916;2024-03-08T06:30:21;28.20;;;17.03;;
6842;SDS011;3460;52.028;8.916;2024-03-08T06:32:48;33.40;;;16.57;;
6842;SDS011;3460;52.028;8.916;2024-03-08T06:35:15;30.47;;;17.33;;
6842;SDS011;3460;52.028;8.916;2024-03-08T06:37:41;26.50;;;15.60;;
6842;SDS011;3460;52.028;8.916;2024-03-08T06:40:11;28.37;;;16.43;;
6842;SDS011;3460;52.028;8.916;2024-03-08T06:42:39;30.27;;;16.97;;
6842;SDS011;3460;52.028;8.916;2024-03-08T06:45:07;30.87;;;18.37;;
6842;SDS011;3460;52.028;8.916;2024-03-08T06:47:35;27.43;;;16.80;;
6842;SDS011;3460;52.028;8.916;2024-03-08T06:50:02;28.63;;;16.27;;
6842;SDS011;3460;52.028;8.916;2024-03-08T06:52:29;30.03;;;16.80;;
6842;SDS011;3460;52.028;8.916;2024-03-08T06:54:56;29.97;;;16.57;;
6842;SDS011;3460;52.028;8.916;2024-03-08T06:57:24;33.50;;;17.83;;
6842;SDS011;3460;52.028;8.916;2024-03-08T06:59:51;31.43;;;17.33;;
6842;SDS011;3460;52.028;8.916;2024-03-08T07:02:19;32.07;;;18.13;;
6842;SDS011;3460;52.028;8.916;2024-03-08T07:04:49;30.73;;;17.33;;
6842;SDS011;3460;52.028;8.916;2024-03-08T07:07:16;31.53;;;16.40;;
6842;SDS011;3460;52.028;8.916;2024-03-08T07:09:45;26.60;;;16.30;;
6842;SDS011;3460;52.028;8.916;2024-03-08T07:12:14;30.03;;;17.23;;
6842;SDS011;3460;52.028;8.916;2024-03-08T07:14:43;33.07;;;17.67;;
6842;SDS011;3460;52.028;8.916;2024-03-08T07:17:10;32.60;;;17.67;;
6842;SDS011;3460;52.028;8.916;2024-03-08T07:19:37;31.73;;;17.40;;
6842;SDS011;3460;52.028;8.916;2024-03-08T07:22:04;28.90;;;17.13;;
6842;SDS011;3460;52.028;8.916;2024-03-08T07:24:33;31.87;;;17.00;;
6842;SDS011;3460;52.028;8.916;2024-03-08T07:27:15;31.40;;;18.40;;
6842;SDS011;3460;52.028;8.916;2024-03-08T07:29:43;31.70;;;18.00;;
6842;SDS011;3460;52.028;8.916;2024-03-08T07:32:10;27.63;;;16.70;;
6842;SDS011;3460;52.028;8.916;2024-03-08T07:34:46;29.03;;;17.93;;
6842;SDS011;3460;52.028;8.916;2024-03-08T07:37:13;31.20;;;16.37;;
6842;SDS011;3460;52.028;8.916;2024-03-08T07:39:40;31.20;;;16.27;;
6842;SDS011;3460;52.028;8.916;2024-03-08T07:42:07;29.97;;;15.20;;
6842;SDS011;3460;52.028;8.916;2024-03-08T07:44:33;26.03;;;15.17;;
6842;SDS011;3460;52.028;8.916;2024-03-08T07:47:02;27.60;;;16.80;;
6842;SDS011;3460;52.028;8.916;2024-03-08T07:49:29;27.13;;;15.47;;
6842;SDS011;3460;52.028;8.916;2024-03-08T07:51:56;28.93;;;15.33;;
6842;SDS011;3460;52.028;8.916;2024-03-08T07:54:24;29.37;;;15.07;;
6842;SDS011;3460;52.028;8.916;2024-03-08T07:56:52;30.37;;;16.60;;
6842;SDS011;3460;52.028;8.916;2024-03-08T07:59:18;29.63;;;16.27;;
6842;SDS011;3460;52.028;8.916;2024-03-08T08:01:46;31.03;;;17.90;;
6842;SDS011;3460;52.028;8.916;2024-03-08T08:04:14;29.13;;;17.33;;
6842;SDS011;3460;52.028;8.916;2024-03-08T08:06:43;26.93;;;16.37;;
6842;SDS011;3460;52.028;8.916;2024-03-08T08:09:09;31.97;;;17.60;;
6842;SDS011;3460;52.028;8.916;2024-03-08T08:11:39;29.73;;;17.30;;
6842;SDS011;3460;52.028;8.916;2024-03-08T08:14:08;29.47;;;17.30;;
6842;SDS011;3460;52.028;8.916;2024-03-08T08:16:35;28.27;;;16.80;;
6842;SDS011;3460;52.028;8.916;2024-03-08T08:19:03;29.90;;;16.80;;
6842;SDS011;3460;52.028;8.916;2024-03-08T08:21:34;27.80;;;15.80;;
6842;SDS011;3460;52.028;8.916;2024-03-08T08:24:01;31.30;;;18.13;;
6842;SDS011;3460;52.028;8.916;2024-03-08T08:26:29;29.80;;;16.83;;
6842;SDS011;3460;52.028;8.916;2024-03-08T08:28:56;29.67;;;18.23;;
6842;SDS011;3460;52.028;8.916;2024-03-08T08:31:22;29.57;;;17.63;;
6842;SDS011;3460;52.028;8.916;2024-03-08T08:33:49;28.23;;;16.97;;
6842;SDS011;3460;52.028;8.916;2024-03-08T08:36:21;29.90;;;17.77;;
6842;SDS011;3460;52.028;8.916;2024-03-08T08:38:49;30.17;;;17.80;;
6842;SDS011;3460;52.028;8.916;2024-03-08T08:41:15;31.87;;;17.90;;
6842;SDS011;3460;52.028;8.916;2024-03-08T08:43:43;22.00;;;11.20;;
6842;SDS011;3460;52.028;8.916;2024-03-08T08:46:10;26.97;;;17.03;;
6842;SDS011;3460;52.028;8.916;2024-03-08T08:48:38;26.20;;;16.37;;
6842;SDS011;3460;52.028;8.916;2024-03-08T08:51:06;31.70;;;17.23;;
6842;SDS011;3460;52.028;8.916;2024-03-08T08:53:37;32.87;;;18.57;;
6842;SDS011;3460;52.028;8.916;2024-03-08T08:56:07;23.13;;;14.33;;
6842;SDS011;3460;52.028;8.916;2024-03-08T08:58:34;30.00;;;17.53;;
6842;SDS011;3460;52.028;8.916;2024-03-08T09:01:00;28.97;;;15.67;;
6842;SDS011;3460;52.028;8.916;2024-03-08T09:03:27;27.67;;;16.43;;
6842;SDS011;3460;52.028;8.916;2024-03-08T09:05:54;27.97;;;17.80;;
6842;SDS011;3460;52.028;8.916;2024-03-08T09:08:22;25.60;;;16.53;;
6842;SDS011;3460;52.028;8.916;2024-03-08T09:10:50;26.80;;;14.67;;
6842;SDS011;3460;52.028;8.916;2024-03-08T09:13:18;31.30;;;18.17;;
6842;SDS011;3460;52.028;8.916;2024-03-08T09:15:44;29.03;;;17.53;;
6842;SDS011;3460;52.028;8.916;2024-03-08T09:18:11;25.50;;;16.30;;
6842;SDS011;3460;52.028;8.916;2024-03-08T09:20:38;28.47;;;16.73;;
6842;SDS011;3460;52.028;8.916;2024-03-08T09:23:06;35.13;;;17.33;;
6842;SDS011;3460;52.028;8.916;2024-03-08T09:25:33;100.97;;;22.57;;
6842;SDS011;3460;52.028;8.916;2024-03-08T09:28:00;36.67;;;21.47;;
6842;SDS011;3460;52.028;8.916;2024-03-08T09:30:28;25.83;;;17.00;;
6842;SDS011;3460;52.028;8.916;2024-03-08T09:32:55;26.83;;;16.77;;
6842;SDS011;3460;52.028;8.916;2024-03-08T09:35:22;31.23;;;17.60;;
6842;SDS011;3460;52.028;8.916;2024-03-08T09:37:48;26.13;;;16.40;;
6842;SDS011;3460;52.028;8.916;2024-03-08T09:40:16;26.40;;;16.30;;
6842;SDS011;3460;52.028;8.916;2024-03-08T09:42:44;28.97;;;16.07;;
6842;SDS011;3460;52.028;8.916;2024-03-08T09:45:13;26.03;;;16.23;;
6842;SDS011;3460;52.028;8.916;2024-03-08T09:47:42;25.73;;;16.63;;
6842;SDS011;3460;52.028;8.916;2024-03-08T09:50:10;26.10;;;15.00;;
6842;SDS011;3460;52.028;8.916;2024-03-08T09:52:38;25.80;;;15.83;;
6842;SDS011;3460;52.028;8.916;2024-03-08T09:55:05;25.73;;;15.03;;
6842;SDS011;3460;52.028;8.916;2024-03-08T09:57:32;23.07;;;14.23;;
6842;SDS011;3460;52.028;8.916;2024-03-08T09:59:59;23.03;;;15.57;;
6842;SDS011;3460;52.028;8.916;2024-03-08T10:02:26;24.67;;;14.47;;
6842;SDS011;3460;52.028;8.916;2024-03-08T10:04:55;24.97;;;15.17;;
6842;SDS011;3460;52.028;8.916;2024-03-08T10:07:23;25.10;;;16.60;;
6842;SDS011;3460;52.028;8.916;2024-03-08T10:09:51;26.33;;;15.40;;
6842;SDS011;3460;52.028;8.916;2024-03-08T10:12:18;26.37;;;16.43;;
6842;SDS011;3460;52.028;8.916;2024-03-08T10:14:46;26.30;;;16.10;;
6842;SDS011;3460;52.028;8.916;2024-03-08T10:17:13;26.50;;;16.37;;
6842;SDS011;3460;52.028;8.916;2024-03-08T10:19:41;26.20;;;16.00;;
6842;SDS011;3460;52.028;8.916;2024-03-08T10:22:18;24.87;;;15.73;;
6842;SDS011;3460;52.028;8.916;2024-03-08T10:24:45;23.47;;;15.97;;
6842;SDS011;3460;52.028;8.916;2024-03-08T10:27:12;25.87;;;15.47;;
6842;SDS011;3460;52.028;8.916;2024-03-08T10:29:41;24.77;;;16.07;;
6842;SDS011;3460;52.028;8.916;2024-03-08T10:32:09;25.87;;;16.83;;
6842;SDS011;3460;52.028;8.916;2024-03-08T10:34:37;28.27;;;15.63;;
6842;SDS011;3460;52.028;8.916;2024-03-08T10:37:04;27.67;;;14.43;;
6842;SDS011;3460;52.028;8.916;2024-03-08T10:39:33;22.30;;;13.40;;
6842;SDS011;3460;52.028;8.916;2024-03-08T10:42:02;28.23;;;16.57;;
6842;SDS011;3460;52.028;8.916;2024-03-08T10:44:33;26.70;;;16.43;;
6842;SDS011;3460;52.028;8.916;2024-03-08T10:47:12;23.57;;;14.27;;
6842;SDS011;3460;52.028;8.916;2024-03-08T10:49:47;24.67;;;14.77;;
6842;SDS011;3460;52.028;8.916;2024-03-08T10:52:17;25.30;;;15.43;;
6842;SDS011;3460;52.028;8.916;2024-03-08T10:54:47;25.03;;;15.77;;
6842;SDS011;3460;52.028;8.916;2024-03-08T10:57:16;26.53;;;15.50;;
6842;SDS011;3460;52.028;8.916;2024-03-08T10:59:45;25.93;;;15.60;;
6842;SDS011;3460;52.028;8.916;2024-03-08T11:02:14;24.27;;;15.90;;
6842;SDS011;3460;52.028;8.916;2024-03-08T11:04:45;20.90;;;14.23;;
6842;SDS011;3460;52.028;8.916;2024-03-08T11:07:14;19.03;;;11.33;;
6842;SDS011;3460;52.028;8.916;2024-03-08T11:09:43;24.27;;;14.57;;
6842;SDS011;3460;52.028;8.916;2024-03-08T11:12:24;22.27;;;13.17;;
6842;SDS011;3460;52.028;8.916;2024-03-08T11:14:54;21.70;;;13.97;;
6842;SDS011;3460;52.028;8.916;2024-03-08T11:17:25;21.93;;;14.33;;
6842;SDS011;3460;52.028;8.916;2024-03-08T11:20:08;23.83;;;14.27;;
6842;SDS011;3460;52.028;8.916;2024-03-08T11:22:40;20.97;;;12.63;;
6842;SDS011;3460;52.028;8.916;2024-03-08T11:25:13;19.40;;;11.30;;
6842;SDS011;3460;52.028;8.916;2024-03-08T11:28:07;22.03;;;13.10;;
6842;SDS011;3460;52.028;8.916;2024-03-08T11:30:36;21.07;;;12.30;;
6842;SDS011;3460;52.028;8.916;2024-03-08T11:33:03;20.00;;;12.80;;
6842;SDS011;3460;52.028;8.916;2024-03-08T11:35:30;16.70;;;10.97;;
6842;SDS011;3460;52.028;8.916;2024-03-08T11:37:57;23.20;;;13.43;;
6842;SDS011;3460;52.028;8.916;2024-03-08T11:40:25;16.13;;;9.87;;
6842;SDS011;3460;52.028;8.916;2024-03-08T11:42:52;14.70;;;10.93;;
6842;SDS011;3460;52.028;8.916;2024-03-08T11:45:21;22.93;;;15.30;;
6842;SDS011;3460;52.028;8.916;2024-03-08T11:47:48;19.23;;;12.53;;
6842;SDS011;3460;52.028;8.916;2024-03-08T11:50:15;21.70;;;11.53;;
6842;SDS011;3460;52.028;8.916;2024-03-08T11:52:43;18.73;;;12.97;;
6842;SDS011;3460;52.028;8.916;2024-03-08T11:55:11;22.23;;;13.57;;
6842;SDS011;3460;52.028;8.916;2024-03-08T11:57:38;18.77;;;12.97;;
6842;SDS011;3460;52.028;8.916;2024-03-08T12:00:14;20.37;;;14.17;;
6842;SDS011;3460;52.028;8.916;2024-03-08T12:05:34;22.80;;;13.70;;
6842;SDS011;3460;52.028;8.916;2024-03-08T12:08:03;21.33;;;14.70;;
6842;SDS011;3460;52.028;8.916;2024-03-08T12:10:31;21.93;;;14.10;;
6842;SDS011;3460;52.028;8.916;2024-03-08T12:13:00;24.33;;;15.57;;
6842;SDS011;3460;52.028;8.916;2024-03-08T12:15:28;22.10;;;13.37;;
6842;SDS011;3460;52.028;8.916;2024-03-08T12:17:58;24.63;;;15.33;;
6842;SDS011;3460;52.028;8.916;2024-03-08T12:20:27;22.97;;;14.90;;
6842;SDS011;3460;52.028;8.916;2024-03-08T12:22:56;26.13;;;15.83;;
6842;SDS011;3460;52.028;8.916;2024-03-08T12:25:25;29.07;;;16.67;;
6842;SDS011;3460;52.028;8.916;2024-03-08T12:27:53;22.63;;;14.50;;
6842;SDS011;3460;52.028;8.916;2024-03-08T12:30:22;24.17;;;15.80;;
6842;SDS011;3460;52.028;8.916;2024-03-08T12:32:52;28.47;;;15.80;;
6842;SDS011;3460;52.028;8.916;2024-03-08T12:35:21;23.70;;;14.90;;
6842;SDS011;3460;52.028;8.916;2024-03-08T12:37:50;24.80;;;16.67;;
6842;SDS011;3460;52.028;8.916;2024-03-08T12:40:19;24.30;;;15.77;;
6842;SDS011;3460;52.028;8.916;2024-03-08T12:42:53;23.37;;;15.07;;
6842;SDS011;3460;52.028;8.916;2024-03-08T12:45:20;24.50;;;15.70;;
6842;SDS011;3460;52.028;8.916;2024-03-08T12:47:49;22.43;;;14.83;;
6842;SDS011;3460;52.028;8.916;2024-03-08T12:50:16;22.07;;;15.37;;
6842;SDS011;3460;52.028;8.916;2024-03-08T12:52:43;24.17;;;15.87;;
6842;SDS011;3460;52.028;8.916;2024-03-08T12:55:11;24.83;;;15.93;;
6842;SDS011;3460;52.028;8.916;2024-03-08T12:57:39;24.53;;;15.93;;
6842;SDS011;3460;52.028;8.916;2024-03-08T13:00:06;20.40;;;13.07;;
6842;SDS011;3460;52.028;8.916;2024-03-08T13:02:38;27.07;;;15.77;;
6842;SDS011;3460;52.028;8.916;2024-03-08T13:05:07;26.03;;;15.60;;
6842;SDS011;3460;52.028;8.916;2024-03-08T13:07:35;26.40;;;15.87;;
6842;SDS011;3460;52.028;8.916;2024-03-08T13:10:03;24.57;;;15.37;;
6842;SDS011;3460;52.028;8.916;2024-03-08T13:12:33;25.30;;;15.47;;
6842;SDS011;3460;52.028;8.916;2024-03-08T13:15:03;32.03;;;20.70;;
6842;SDS011;3460;52.028;8.916;2024-03-08T13:17:31;23.37;;;15.53;;
6842;SDS011;3460;52.028;8.916;2024-03-08T13:19:58;21.27;;;15.13;;
6842;SDS011;3460;52.028;8.916;2024-03-08T13:22:25;22.83;;;15.03;;
6842;SDS011;3460;52.028;8.916;2024-03-08T13:24:53;22.80;;;14.43;;
6842;SDS011;3460;52.028;8.916;2024-03-08T13:27:19;23.53;;;15.73;;
6842;SDS011;3460;52.028;8.916;2024-03-08T13:29:48;22.60;;;15.57;;
6842;SDS011;3460;52.028;8.916;2024-03-08T13:32:15;24.90;;;15.60;;
6842;SDS011;3460;52.028;8.916;2024-03-08T13:34:45;17.57;;;11.80;;
6842;SDS011;3460;52.028;8.916;2024-03-08T13:37:13;20.17;;;12.50;;
6842;SDS011;3460;52.028;8.916;2024-03-08T13:39:41;21.63;;;14.13;;
6842;SDS011;3460;52.028;8.916;2024-03-08T13:42:09;23.77;;;16.13;;
6842;SDS011;3460;52.028;8.916;2024-03-08T13:44:38;25.33;;;15.77;;
6842;SDS011;3460;52.028;8.916;2024-03-08T13:47:07;25.70;;;15.87;;
6842;SDS011;3460;52.028;8.916;2024-03-08T13:49:34;24.87;;;16.03;;
6842;SDS011;3460;52.028;8.916;2024-03-08T13:52:01;22.30;;;14.30;;
6842;SDS011;3460;52.028;8.916;2024-03-08T13:54:29;28.13;;;16.60;;
6842;SDS011;3460;52.028;8.916;2024-03-08T13:56:56;25.20;;;15.30;;
6842;SDS011;3460;52.028;8.916;2024-03-08T13:59:23;24.83;;;16.67;;
6842;SDS011;3460;52.028;8.916;2024-03-08T14:01:54;21.57;;;14.83;;
6842;SDS011;3460;52.028;8.916;2024-03-08T14:04:23;22.70;;;15.07;;
6842;SDS011;3460;52.028;8.916;2024-03-08T14:06:51;22.83;;;14.13;;
6842;SDS011;3460;52.028;8.916;2024-03-08T14:09:21;26.03;;;16.43;;
6842;SDS011;3460;52.028;8.916;2024-03-08T14:11:49;23.50;;;16.03;;
6842;SDS011;3460;52.028;8.916;2024-03-08T14:14:18;20.73;;;12.90;;
6842;SDS011;3460;52.028;8.916;2024-03-08T14:16:45;22.33;;;15.93;;
6842;SDS011;3460;52.028;8.916;2024-03-08T14:19:12;19.23;;;11.60;;
6842;SDS011;3460;52.028;8.916;2024-03-08T14:21:41;22.27;;;14.20;;
6842;SDS011;3460;52.028;8.916;2024-03-08T14:24:08;23.30;;;15.97;;
6842;SDS011;3460;52.028;8.916;2024-03-08T14:26:35;24.57;;;16.13;;
6842;SDS011;3460;52.028;8.916;2024-03-08T14:29:03;21.77;;;14.40;;
6842;SDS011;3460;52.028;8.916;2024-03-08T14:31:30;27.33;;;15.93;;
6842;SDS011;3460;52.028;8.916;2024-03-08T14:33:57;24.30;;;15.50;;
6842;SDS011;3460;52.028;8.916;2024-03-08T14:36:24;24.33;;;15.43;;
6842;SDS011;3460;52.028;8.916;2024-03-08T14:38:53;18.83;;;12.67;;
6842;SDS011;3460;52.028;8.916;2024-03-08T14:41:19;20.70;;;13.97;;
6842;SDS011;3460;52.028;8.916;2024-03-08T14:43:47;22.00;;;14.83;;
6842;SDS011;3460;52.028;8.916;2024-03-08T14:46:14;21.57;;;15.00;;
6842;SDS011;3460;52.028;8.916;2024-03-08T14:48:42;21.90;;;14.30;;
6842;SDS011;3460;52.028;8.916;2024-03-08T14:51:09;24.93;;;16.20;;
6842;SDS011;3460;52.028;8.916;2024-03-08T14:53:39;23.07;;;15.50;;
6842;SDS011;3460;52.028;8.916;2024-03-08T14:56:08;22.37;;;15.13;;